| time (UTC) | temp F | wind direction | speed MPH | gust MPH | rain 1hr in | rain 24hr in | rain mn in | humidity % | barometer mb |
| 20260507150041 | 39 | 127 | 1.0 | 3.0 | 0.00 | 0.15 | 0.05 | 85 | 1017.2 |
| 20260507144539 | 38 | 0 | 0.0 | 1.0 | 0.01 | 0.15 | 0.05 | 85 | 1017.1 |
| 20260507143041 | 37 | 186 | 1.0 | 2.0 | 0.03 | 0.15 | 0.05 | 87 | 1017.0 |
| 20260507141543 | 37 | 134 | 0.0 | 1.0 | 0.04 | 0.15 | 0.05 | 86 | 1017.1 |
| 20260507140045 | 38 | 141 | 0.0 | 4.0 | 0.04 | 0.15 | 0.05 | 84 | 1017.1 |
| 20260507134541 | 38 | 162 | 2.0 | 12.0 | 0.04 | 0.14 | 0.04 | 81 | 1017.2 |
| 20260507133046 | 38 | 226 | 6.0 | 11.0 | 0.02 | 0.12 | 0.02 | 81 | 1017.7 |
| 20260507131540 | 39 | 226 | 3.0 | 8.0 | 0.01 | 0.11 | 0.01 | 79 | 1017.5 |
| 20260507130043 | 39 | 224 | 2.0 | 8.0 | 0.01 | 0.11 | 0.01 | 78 | 1017.0 |
| 20260507124551 | 41 | 203 | 3.0 | 6.0 | 0.00 | 0.10 | 0.00 | 70 | 1017.1 |
| 20260507123043 | 40 | 151 | 1.0 | 4.0 | 0.00 | 0.10 | 0.00 | 71 | 1017.1 |
| 20260507121541 | 40 | 144 | 1.0 | 3.0 | 0.00 | 0.10 | 0.00 | 73 | 1017.1 |
| 20260507120037 | 40 | 199 | 0.0 | 2.0 | 0.00 | 0.10 | 0.00 | 73 | 1017.2 |
| 20260507114555 | 41 | 194 | 4.0 | 10.0 | 0.00 | 0.10 | 0.00 | 71 | 1017.3 |
| 20260507113100 | 41 | 122 | 1.0 | 3.0 | 0.00 | 0.10 | 0.00 | 72 | 1017.2 |
| 20260507111542 | 41 | 192 | 1.0 | 4.0 | 0.00 | 0.10 | 0.00 | 74 | 1017.1 |
| 20260507110039 | 40 | 207 | 1.0 | 2.0 | 0.00 | 0.10 | 0.00 | 78 | 1017.1 |
| 20260507104543 | 40 | 210 | 0.0 | 3.0 | 0.00 | 0.10 | 0.00 | 78 | 1017.2 |
| 20260507103045 | 40 | 215 | 2.0 | 7.0 | 0.00 | 0.10 | 0.00 | 78 | 1017.1 |
| 20260507101537 | 40 | 231 | 3.0 | 7.0 | 0.00 | 0.10 | 0.00 | 77 | 1017.2 |
| 20260507100037 | 40 | 225 | 2.0 | 4.0 | 0.00 | 0.10 | 0.00 | 79 | 1017.0 |
| 20260507094538 | 40 | 230 | 1.0 | 5.0 | 0.00 | 0.10 | 0.00 | 79 | 1017.1 |
| 20260507093037 | 40 | 193 | 4.0 | 10.0 | 0.00 | 0.10 | 0.00 | 78 | 1017.0 |
| 20260507091542 | 40 | 238 | 5.0 | 9.0 | 0.00 | 0.10 | 0.00 | 78 | 1016.9 |
| 20260507090038 | 40 | 140 | 4.0 | 8.0 | 0.00 | 0.10 | 0.00 | 83 | 1016.9 |
| 20260507084544 | 40 | 224 | 2.0 | 5.0 | 0.00 | 0.10 | 0.00 | 85 | 1016.7 |
| 20260507083037 | 40 | 155 | 2.0 | 9.0 | 0.01 | 0.10 | 0.00 | 85 | 1016.6 |
| 20260507081541 | 40 | 134 | 2.0 | 7.0 | 0.01 | 0.10 | 0.00 | 85 | 1016.6 |
| 20260507080033 | 41 | 159 | 3.0 | 11.0 | 0.01 | 0.10 | 0.00 | 84 | 1016.5 |
| 20260507074545 | 41 | 175 | 4.0 | 13.0 | 0.02 | 0.10 | 0.10 | 84 | 1016.2 |
| 20260507073040 | 41 | 135 | 4.0 | 9.0 | 0.02 | 0.09 | 0.09 | 85 | 1016.3 |
| 20260507071537 | 40 | 134 | 4.0 | 10.0 | 0.04 | 0.09 | 0.09 | 86 | 1016.1 |
| 20260507070039 | 41 | 145 | 4.0 | 8.0 | 0.06 | 0.09 | 0.09 | 85 | 1015.9 |
| 20260507064539 | 41 | 168 | 4.0 | 10.0 | 0.05 | 0.08 | 0.08 | 85 | 1015.9 |
| 20260507063042 | 41 | 144 | 2.0 | 4.0 | 0.04 | 0.07 | 0.07 | 84 | 1015.8 |
| 20260507061539 | 41 | 142 | 4.0 | 8.0 | 0.02 | 0.05 | 0.05 | 83 | 1016.0 |
| 20260507060038 | 42 | 158 | 6.0 | 12.0 | 0.00 | 0.03 | 0.03 | 81 | 1015.5 |
| 20260507054538 | 43 | 148 | 4.0 | 9.0 | 0.00 | 0.03 | 0.03 | 80 | 1015.3 |
| 20260507053039 | 43 | 159 | 3.0 | 11.0 | 0.00 | 0.03 | 0.03 | 81 | 1015.3 |
| 20260507051538 | 43 | 155 | 4.0 | 8.0 | 0.00 | 0.03 | 0.03 | 81 | 1015.2 |
| 20260507050041 | 42 | 148 | 2.0 | 5.0 | 0.00 | 0.03 | 0.03 | 81 | 1015.0 |
| 20260507044538 | 42 | 155 | 3.0 | 9.0 | 0.00 | 0.03 | 0.03 | 82 | 1015.1 |
| 20260507043054 | 42 | 120 | 4.0 | 12.0 | 0.01 | 0.03 | 0.03 | 82 | 1014.8 |
| 20260507041538 | 43 | 130 | 5.0 | 12.0 | 0.02 | 0.03 | 0.03 | 81 | 1014.9 |
| 20260507040035 | 43 | 167 | 4.0 | 8.0 | 0.02 | 0.03 | 0.03 | 81 | 1014.9 |
| 20260507034538 | 43 | 165 | 2.0 | 5.0 | 0.02 | 0.03 | 0.03 | 83 | 1015.0 |
| 20260507033043 | 44 | 245 | 3.0 | 9.0 | 0.01 | 0.02 | 0.02 | 80 | 1014.8 |
| 20260507031545 | 45 | 206 | 3.0 | 6.0 | 0.00 | 0.01 | 0.01 | 76 | 1014.6 |
| 20260507030036 | 46 | 238 | 4.0 | 9.0 | 0.00 | 0.01 | 0.01 | 70 | 1014.4 |
| 20260507024551 | 47 | 188 | 4.0 | 10.0 | 0.01 | 0.01 | 0.01 | 71 | 1014.1 |
| 20260507023037 | 46 | 204 | 4.0 | 8.0 | 0.01 | 0.01 | 0.01 | 73 | 1014.1 |
| 20260507021543 | 45 | 210 | 2.0 | 5.0 | 0.01 | 0.01 | 0.01 | 78 | 1013.9 |
| 20260507020048 | 45 | 217 | 0.0 | 7.0 | 0.01 | 0.01 | 0.01 | 81 | 1013.9 |
| 20260507014538 | 46 | 211 | 4.0 | 10.0 | 0.00 | 0.00 | 0.00 | 78 | 1013.8 |
| 20260507013038 | 45 | 170 | 2.0 | 8.0 | 0.00 | 0.00 | 0.00 | 80 | 1013.8 |
| 20260507011545 | 44 | 259 | 3.0 | 7.0 | 0.00 | 0.00 | 0.00 | 82 | 1013.8 |
| 20260507010038 | 44 | 256 | 1.0 | 4.0 | 0.00 | 0.00 | 0.00 | 85 | 1014.1 |
| 20260507004543 | 44 | 262 | 1.0 | 5.0 | 0.00 | 0.00 | 0.00 | 84 | 1013.7 |
| 20260507003037 | 44 | 233 | 2.0 | 5.0 | 0.00 | 0.00 | 0.00 | 84 | 1013.8 |
| 20260507001616 | 42 | 311 | 1.0 | 5.0 | 0.00 | 0.00 | 0.00 | 86 | 1013.7 |
| 20260507000042 | 42 | 349 | 1.0 | 3.0 | 0.00 | 0.00 | 0.00 | 85 | 1013.6 |
| 20260506234537 | 42 | 336 | 2.0 | 5.0 | 0.00 | 0.00 | 0.00 | 84 | 1013.5 |
| 20260506233042 | 43 | 315 | 2.0 | 5.0 | 0.00 | 0.00 | 0.00 | 83 | 1013.3 |
| 20260506231544 | 43 | 319 | 2.0 | 4.0 | 0.00 | 0.00 | 0.00 | 83 | 1013.3 |
| 20260506230052 | 43 | 274 | 1.0 | 8.0 | 0.00 | 0.00 | 0.00 | 82 | 1013.2 |
| 20260506224538 | 45 | 241 | 2.0 | 7.0 | 0.00 | 0.00 | 0.00 | 78 | 1013.4 |
| 20260506223037 | 46 | 249 | 3.0 | 12.0 | 0.00 | 0.00 | 0.00 | 75 | 1013.1 |
| 20260506221602 | 46 | 221 | 3.0 | 10.0 | 0.00 | 0.00 | 0.00 | 75 | 1013.1 |
| 20260506220036 | 45 | 258 | 3.0 | 11.0 | 0.00 | 0.00 | 0.00 | 77 | 1012.8 |
| 20260506214537 | 45 | 219 | 3.0 | 8.0 | 0.00 | 0.00 | 0.00 | 75 | 1012.9 |
| 20260506213039 | 47 | 245 | 2.0 | 10.0 | 0.00 | 0.00 | 0.00 | 67 | 1012.8 |
| 20260506211538 | 46 | 226 | 5.0 | 10.0 | 0.00 | 0.00 | 0.00 | 67 | 1012.7 |
| 20260506210054 | 46 | 221 | 6.0 | 11.0 | 0.00 | 0.00 | 0.00 | 67 | 1012.7 |
| 20260506204540 | 46 | 162 | 5.0 | 13.0 | 0.00 | 0.00 | 0.00 | 68 | 1012.5 |
| 20260506203044 | 45 | 200 | 5.0 | 11.0 | 0.00 | 0.00 | 0.00 | 70 | 1012.4 |
| 20260506201542 | 45 | 216 | 5.0 | 10.0 | 0.00 | 0.00 | 0.00 | 71 | 1012.4 |
| 20260506200040 | 45 | 242 | 5.0 | 12.0 | 0.00 | 0.00 | 0.00 | 71 | 1012.3 |
| 20260506194538 | 45 | 185 | 4.0 | 10.0 | 0.00 | 0.00 | 0.00 | 72 | 1012.1 |
| 20260506193043 | 45 | 153 | 5.0 | 11.0 | 0.00 | 0.00 | 0.00 | 72 | 1012.1 |
| 20260506191537 | 45 | 262 | 4.0 | 7.0 | 0.00 | 0.00 | 0.00 | 75 | 1012.1 |
| 20260506190038 | 45 | 229 | 2.0 | 5.0 | 0.00 | 0.00 | 0.00 | 75 | 1012.1 |
| 20260506184543 | 44 | 314 | 0.0 | 2.0 | 0.00 | 0.00 | 0.00 | 76 | 1012.1 |
| 20260506183038 | 43 | 0 | 0.0 | 2.0 | 0.00 | 0.00 | 0.00 | 77 | 1011.9 |
| 20260506181542 | 43 | 326 | 0.0 | 2.0 | 0.00 | 0.00 | 0.00 | 79 | 1011.9 |
| 20260506180038 | 43 | 311 | 1.0 | 3.0 | 0.00 | 0.00 | 0.00 | 77 | 1011.8 |
| 20260506174538 | 43 | 32 | 1.0 | 3.0 | 0.00 | 0.00 | 0.00 | 77 | 1011.8 |
| 20260506173043 | 43 | 13 | 0.0 | 2.0 | 0.00 | 0.00 | 0.00 | 76 | 1011.7 |
| 20260506171541 | 42 | 0 | 0.0 | 3.0 | 0.00 | 0.00 | 0.00 | 78 | 1011.7 |
| 20260506170046 | 42 | 18 | 0.0 | 2.0 | 0.00 | 0.00 | 0.00 | 77 | 1011.6 |
| 20260506164551 | 42 | 30 | 0.0 | 2.0 | 0.00 | 0.00 | 0.00 | 78 | 1011.4 |
| 20260506163051 | 41 | 345 | 1.0 | 2.0 | 0.00 | 0.00 | 0.00 | 79 | 1011.3 |
| 20260506161537 | 41 | 32 | 0.0 | 3.0 | 0.00 | 0.00 | 0.00 | 79 | 1011.3 |
| 20260506160037 | 41 | 0 | 0.0 | 1.0 | 0.00 | 0.00 | 0.00 | 79 | 1011.0 |
| 20260506154544 | 41 | 46 | 0.0 | 3.0 | 0.00 | 0.00 | 0.00 | 79 | 1010.9 |
| 20260506153037 | 41 | 0 | 0.0 | 1.0 | 0.00 | 0.00 | 0.00 | 80 | 1010.9 |
| 20260506151539 | 40 | 0 | 0.0 | 1.0 | 0.00 | 0.00 | 0.00 | 81 | 1010.9 |